createdAt,value
2023-10-31T00:00:58.742Z,99.54
2023-10-31T00:01:58.911Z,99.34
2023-10-31T00:02:59.107Z,99.34
2023-10-31T00:03:59.290Z,99.24
2023-10-31T00:04:59.432Z,99.44
2023-10-31T00:05:59.566Z,99.65
2023-10-31T00:06:59.720Z,99.65
2023-10-31T00:07:59.913Z,99.54
2023-10-31T00:09:00.042Z,99.75
2023-10-31T00:10:00.250Z,99.95
2023-10-31T00:11:00.435Z,99.99
2023-10-31T00:12:00.586Z,99.99
2023-10-31T00:13:00.830Z,99.99
2023-10-31T00:14:00.987Z,99.99
2023-10-31T00:15:01.100Z,99.95
2023-10-31T00:16:01.290Z,99.85
2023-10-31T00:17:01.474Z,99.54
2023-10-31T00:18:01.690Z,99.65
2023-10-31T00:19:02.775Z,99.75
2023-10-31T00:20:01.990Z,99.34
2023-10-31T00:21:02.117Z,99.34
2023-10-31T00:22:02.277Z,99.54
2023-10-31T00:23:02.434Z,99.65
2023-10-31T00:24:02.594Z,99.85
2023-10-31T00:25:02.752Z,99.99
2023-10-31T00:26:02.893Z,99.95
2023-10-31T00:27:03.032Z,99.85
2023-10-31T00:28:03.173Z,99.95
2023-10-31T00:29:03.362Z,99.99
2023-10-31T00:30:03.514Z,99.99
2023-10-31T00:31:03.645Z,99.99
2023-10-31T00:32:06.943Z,99.99
2023-10-31T00:33:03.974Z,99.99
2023-10-31T00:34:04.523Z,99.99
2023-10-31T00:35:04.292Z,99.99
2023-10-31T00:36:04.444Z,99.99
2023-10-31T00:37:04.597Z,99.99
2023-10-31T00:38:04.796Z,99.99
2023-10-31T00:39:04.922Z,99.99
2023-10-31T00:40:05.077Z,99.99
2023-10-31T00:41:05.244Z,99.99
2023-10-31T00:42:05.365Z,99.99
2023-10-31T00:43:05.506Z,99.99
2023-10-31T00:44:05.703Z,99.99
2023-10-31T00:45:05.804Z,99.99
2023-10-31T00:46:06.017Z,99.99
2023-10-31T00:47:06.173Z,99.99
2023-10-31T00:48:06.383Z,99.99
2023-10-31T00:49:06.505Z,99.99
2023-10-31T00:50:06.673Z,99.99
2023-10-31T00:51:06.815Z,99.99
2023-10-31T00:52:06.978Z,99.99
2023-10-31T00:53:07.155Z,99.99
2023-10-31T00:54:07.293Z,99.99
2023-10-31T00:55:07.446Z,99.99
2023-10-31T00:56:07.637Z,99.99
2023-10-31T00:57:07.760Z,99.99
2023-10-31T00:58:07.892Z,99.99
2023-10-31T00:59:08.066Z,99.99
2023-10-31T01:00:08.213Z,99.99
2023-10-31T01:01:08.398Z,99.99
2023-10-31T01:02:09.055Z,99.99
2023-10-31T01:03:08.688Z,99.99
2023-10-31T01:04:08.839Z,99.99
2023-10-31T01:05:09.051Z,99.99
2023-10-31T01:06:09.219Z,99.99
2023-10-31T01:07:09.374Z,99.99
2023-10-31T01:08:09.553Z,99.99
2023-10-31T01:09:09.686Z,99.99
2023-10-31T01:10:09.827Z,99.99
2023-10-31T01:11:10.023Z,99.99
2023-10-31T01:12:10.167Z,99.99
2023-10-31T01:13:10.298Z,99.99
2023-10-31T01:14:10.484Z,99.99
2023-10-31T01:15:10.609Z,99.99
2023-10-31T01:16:10.785Z,99.99
2023-10-31T01:17:10.930Z,99.99
2023-10-31T01:18:11.121Z,99.99
2023-10-31T01:19:11.267Z,99.99
2023-10-31T01:20:11.414Z,99.99
2023-10-31T01:21:11.541Z,99.99
2023-10-31T01:22:11.740Z,99.99
2023-10-31T01:23:11.916Z,99.99
2023-10-31T01:24:12.098Z,99.99
2023-10-31T01:25:12.137Z,99.99
2023-10-31T01:26:12.325Z,99.99
2023-10-31T01:27:12.453Z,99.99
2023-10-31T01:28:12.611Z,99.99
2023-10-31T01:29:12.863Z,99.99
2023-10-31T01:30:12.964Z,99.99
2023-10-31T01:31:13.113Z,99.99
2023-10-31T01:32:20.067Z,99.99
2023-10-31T01:33:14.501Z,99.99
2023-10-31T01:34:13.634Z,99.99
2023-10-31T01:35:13.716Z,99.99
2023-10-31T01:36:20.856Z,99.99
2023-10-31T01:37:16.609Z,99.99
2023-10-31T01:38:14.200Z,99.99
2023-10-31T01:39:16.008Z,99.99
2023-10-31T01:40:14.480Z,99.99
2023-10-31T01:41:14.613Z,99.99
2023-10-31T01:42:14.750Z,99.99
2023-10-31T01:43:14.907Z,99.99
2023-10-31T01:44:15.131Z,99.99
2023-10-31T01:45:15.240Z,99.99
2023-10-31T01:46:15.425Z,99.99
2023-10-31T01:47:15.587Z,99.99
2023-10-31T01:48:15.709Z,99.99
2023-10-31T01:49:15.903Z,99.99
2023-10-31T01:50:16.106Z,99.99
2023-10-31T01:51:16.222Z,99.99
2023-10-31T01:52:16.375Z,99.99
2023-10-31T01:53:16.536Z,99.99
2023-10-31T01:54:16.689Z,99.99
2023-10-31T01:55:16.843Z,99.99
2023-10-31T01:56:16.980Z,99.99
2023-10-31T01:57:17.152Z,99.99
2023-10-31T01:58:17.302Z,99.99
2023-10-31T01:59:17.477Z,99.99
2023-10-31T02:00:17.654Z,99.99
2023-10-31T02:01:17.831Z,99.99
2023-10-31T02:02:18.019Z,99.99
2023-10-31T02:03:18.228Z,99.99
2023-10-31T02:04:18.281Z,99.99
2023-10-31T02:05:18.476Z,99.99
2023-10-31T02:06:18.629Z,99.99
2023-10-31T02:07:18.768Z,99.99
2023-10-31T02:08:18.994Z,99.99
2023-10-31T02:09:19.110Z,99.99
2023-10-31T02:10:19.250Z,99.99
2023-10-31T02:11:19.386Z,99.99
2023-10-31T02:12:19.537Z,99.99
2023-10-31T02:13:19.677Z,99.99
2023-10-31T02:14:19.822Z,99.99
2023-10-31T02:15:20.002Z,99.99
2023-10-31T02:16:20.142Z,99.99
2023-10-31T02:17:20.269Z,99.99
2023-10-31T02:18:20.414Z,99.99
2023-10-31T02:19:20.572Z,99.99
2023-10-31T02:20:20.763Z,99.99
2023-10-31T02:21:20.913Z,99.99
2023-10-31T02:22:21.061Z,99.99
2023-10-31T02:23:21.182Z,99.99
2023-10-31T02:24:21.342Z,99.99
2023-10-31T02:25:21.485Z,99.99
2023-10-31T02:26:21.702Z,99.99
2023-10-31T02:27:21.822Z,99.99
2023-10-31T02:28:21.953Z,99.99
2023-10-31T02:29:22.121Z,99.99
2023-10-31T02:30:22.316Z,99.99
2023-10-31T02:31:22.442Z,99.99
2023-10-31T02:32:22.673Z,99.99
2023-10-31T02:33:22.796Z,99.99
2023-10-31T02:34:22.945Z,99.99
2023-10-31T02:35:23.166Z,99.99
2023-10-31T02:36:23.291Z,99.99
2023-10-31T02:37:23.443Z,99.99
2023-10-31T02:38:23.598Z,99.99
2023-10-31T02:39:23.769Z,99.99
2023-10-31T02:40:23.921Z,99.99
2023-10-31T02:41:24.083Z,99.99
2023-10-31T02:42:24.229Z,99.99
2023-10-31T02:43:24.364Z,99.99
2023-10-31T02:44:24.552Z,99.99
2023-10-31T02:45:24.700Z,99.99
2023-10-31T02:46:24.932Z,99.99
2023-10-31T02:47:25.054Z,99.99
2023-10-31T02:48:25.201Z,99.99
2023-10-31T02:49:25.996Z,99.99
2023-10-31T02:50:25.505Z,99.99
2023-10-31T02:51:25.651Z,99.99
2023-10-31T02:52:25.821Z,99.99
2023-10-31T02:53:25.996Z,99.99
2023-10-31T02:54:26.163Z,99.99
2023-10-31T02:55:26.315Z,99.99
2023-10-31T02:56:26.457Z,99.99
2023-10-31T02:57:26.609Z,99.99
2023-10-31T02:58:26.743Z,99.99
2023-10-31T02:59:26.914Z,99.99
2023-10-31T03:00:27.078Z,99.99
2023-10-31T03:01:27.235Z,99.99
2023-10-31T03:02:27.443Z,99.99
2023-10-31T03:03:27.542Z,99.99
2023-10-31T03:04:27.663Z,99.99
2023-10-31T03:05:27.816Z,99.99
2023-10-31T03:06:27.959Z,99.99
2023-10-31T03:07:28.107Z,99.99
2023-10-31T03:08:28.255Z,99.99
2023-10-31T03:09:28.420Z,99.99
2023-10-31T03:10:28.567Z,99.99
2023-10-31T03:11:28.715Z,99.99
2023-10-31T03:12:28.860Z,99.99
2023-10-31T03:13:29.035Z,99.99
2023-10-31T03:14:29.170Z,99.99
2023-10-31T03:15:29.310Z,99.99
2023-10-31T03:16:29.498Z,99.99
2023-10-31T03:17:29.668Z,99.99
2023-10-31T03:18:29.685Z,99.99
2023-10-31T03:19:29.849Z,99.99
2023-10-31T03:20:29.990Z,99.99
2023-10-31T03:21:30.152Z,99.99
2023-10-31T03:22:30.308Z,99.99
2023-10-31T03:23:30.445Z,99.99
2023-10-31T03:24:30.617Z,99.99
2023-10-31T03:25:30.777Z,99.99
2023-10-31T03:26:30.909Z,99.99
2023-10-31T03:27:31.053Z,99.99
2023-10-31T03:28:31.203Z,99.99
2023-10-31T03:29:31.359Z,99.99
2023-10-31T03:30:31.537Z,99.99
2023-10-31T03:31:31.747Z,99.99
2023-10-31T03:32:31.871Z,99.99
2023-10-31T03:33:31.993Z,99.99
2023-10-31T03:34:32.135Z,99.99
2023-10-31T03:35:32.293Z,99.99
2023-10-31T03:36:32.423Z,99.99
2023-10-31T03:37:32.610Z,99.99
2023-10-31T03:38:32.813Z,99.99
2023-10-31T03:39:32.868Z,99.99
2023-10-31T03:40:33.015Z,99.99
2023-10-31T03:41:33.179Z,99.99
2023-10-31T03:42:33.314Z,99.99
2023-10-31T03:43:33.459Z,99.99
2023-10-31T03:44:33.668Z,99.99
2023-10-31T03:45:33.821Z,99.99
2023-10-31T03:46:33.993Z,99.99
2023-10-31T03:47:34.162Z,99.99
2023-10-31T03:48:34.293Z,99.99
2023-10-31T03:49:34.458Z,99.99
2023-10-31T03:50:34.622Z,99.99
2023-10-31T03:51:34.769Z,99.99
2023-10-31T03:52:34.913Z,99.99
2023-10-31T03:53:35.065Z,99.99
2023-10-31T03:54:35.230Z,99.99
2023-10-31T03:55:35.385Z,99.99
2023-10-31T03:56:35.540Z,99.99
2023-10-31T03:57:35.676Z,99.99
2023-10-31T03:58:35.846Z,99.99
2023-10-31T03:59:36.012Z,99.99
2023-10-31T04:00:36.205Z,99.99
2023-10-31T04:01:36.348Z,99.99
2023-10-31T04:02:36.499Z,99.99
2023-10-31T04:03:36.667Z,99.99
2023-10-31T04:04:36.795Z,99.99
2023-10-31T04:05:36.950Z,99.99
2023-10-31T04:06:37.094Z,99.99
2023-10-31T04:07:37.281Z,99.99
2023-10-31T04:08:37.408Z,99.99
2023-10-31T04:09:37.578Z,99.99
2023-10-31T04:10:37.707Z,99.99
2023-10-31T04:11:37.857Z,99.99
2023-10-31T04:12:38.034Z,99.99
2023-10-31T04:13:38.158Z,99.99
2023-10-31T04:14:38.316Z,99.99
2023-10-31T04:15:38.467Z,99.99
2023-10-31T04:16:38.656Z,99.99
2023-10-31T04:17:38.859Z,99.99
2023-10-31T04:18:38.875Z,99.99
2023-10-31T04:19:39.041Z,99.99
2023-10-31T04:20:39.195Z,99.99
2023-10-31T04:21:39.334Z,99.99
2023-10-31T04:22:39.498Z,99.99
2023-10-31T04:23:40.426Z,99.99
2023-10-31T04:24:40.786Z,99.99
2023-10-31T04:25:39.950Z,99.99
2023-10-31T04:26:40.077Z,99.99
2023-10-31T04:27:40.237Z,99.99
2023-10-31T04:28:40.473Z,99.99
2023-10-31T04:29:40.584Z,99.99
2023-10-31T04:30:40.725Z,99.99
2023-10-31T04:31:44.285Z,99.99
2023-10-31T04:32:41.125Z,99.99
2023-10-31T04:33:41.165Z,99.99
2023-10-31T04:34:41.361Z,99.99
2023-10-31T04:35:41.488Z,99.99
2023-10-31T04:36:41.652Z,99.99
2023-10-31T04:37:41.802Z,99.99
2023-10-31T04:38:41.934Z,99.99
2023-10-31T04:39:42.091Z,99.99
2023-10-31T04:40:42.271Z,99.99
2023-10-31T04:41:42.398Z,99.99
2023-10-31T04:42:42.548Z,99.99
2023-10-31T04:43:42.701Z,99.99
2023-10-31T04:44:42.835Z,99.99
2023-10-31T04:45:42.983Z,99.99
2023-10-31T04:46:43.283Z,99.99
2023-10-31T04:47:43.551Z,99.99
2023-10-31T04:48:43.478Z,99.99
2023-10-31T04:49:43.621Z,99.99
2023-10-31T04:50:43.745Z,99.99
2023-10-31T04:51:43.894Z,99.99
2023-10-31T04:52:44.056Z,99.99
2023-10-31T04:53:44.197Z,99.99
2023-10-31T04:54:44.351Z,99.99
2023-10-31T04:55:44.516Z,99.99
2023-10-31T04:56:44.699Z,99.99
2023-10-31T04:57:44.843Z,99.99
2023-10-31T04:58:44.984Z,99.99
2023-10-31T04:59:45.133Z,99.99
2023-10-31T05:00:45.291Z,99.99
2023-10-31T05:01:45.465Z,99.99
2023-10-31T05:02:45.604Z,99.99
2023-10-31T05:03:47.380Z,99.99
2023-10-31T05:04:46.009Z,99.99
2023-10-31T05:05:46.061Z,99.99
2023-10-31T05:06:46.206Z,99.99
2023-10-31T05:07:46.360Z,99.99
2023-10-31T05:08:46.489Z,99.99
2023-10-31T05:09:47.474Z,99.99
2023-10-31T05:10:47.265Z,99.99
2023-10-31T05:11:47.067Z,99.99
2023-10-31T05:12:47.201Z,99.99
2023-10-31T05:13:47.345Z,99.99
2023-10-31T05:14:47.480Z,99.99
2023-10-31T05:15:47.655Z,99.99
2023-10-31T05:16:47.807Z,99.99
2023-10-31T05:17:47.980Z,99.99
2023-10-31T05:18:48.063Z,99.99
2023-10-31T05:19:48.277Z,99.99
2023-10-31T05:20:48.376Z,99.99
2023-10-31T05:21:48.541Z,99.99
2023-10-31T05:22:48.726Z,99.99
2023-10-31T05:23:48.904Z,99.99
2023-10-31T05:24:49.086Z,99.99
2023-10-31T05:25:49.309Z,99.99
2023-10-31T05:26:49.461Z,99.99
2023-10-31T05:27:49.620Z,99.99
2023-10-31T05:28:49.786Z,99.99
2023-10-31T05:29:49.972Z,99.99
2023-10-31T05:30:50.036Z,99.99
2023-10-31T05:31:50.254Z,99.99
2023-10-31T05:32:50.365Z,99.99
2023-10-31T05:33:50.549Z,99.99
2023-10-31T05:34:50.720Z,99.99
2023-10-31T05:35:50.874Z,99.99
2023-10-31T05:36:51.044Z,99.99
2023-10-31T05:37:51.235Z,99.99
2023-10-31T05:38:51.382Z,99.99
2023-10-31T05:39:51.568Z,99.99
2023-10-31T05:40:51.751Z,99.99
2023-10-31T05:41:51.932Z,99.99
2023-10-31T05:42:52.064Z,99.99
2023-10-31T05:43:52.306Z,99.99
2023-10-31T05:44:52.435Z,99.99
2023-10-31T05:45:52.716Z,99.99
2023-10-31T05:46:52.831Z,99.99
2023-10-31T05:47:52.891Z,99.99
2023-10-31T05:48:53.014Z,99.99
2023-10-31T05:49:53.263Z,99.99
2023-10-31T05:50:53.266Z,99.99
2023-10-31T05:51:53.421Z,99.99
2023-10-31T05:52:53.571Z,99.99
2023-10-31T05:53:53.710Z,99.99
2023-10-31T05:54:53.849Z,99.99
2023-10-31T05:55:54.046Z,99.99
2023-10-31T05:56:54.172Z,99.99
2023-10-31T05:57:54.327Z,99.99
2023-10-31T05:58:54.475Z,99.99
2023-10-31T05:59:54.657Z,99.99
2023-10-31T06:00:54.804Z,99.99
2023-10-31T06:01:55.014Z,99.99
2023-10-31T06:02:55.186Z,99.99
2023-10-31T06:03:55.332Z,99.99
2023-10-31T06:04:55.477Z,99.99
2023-10-31T06:05:55.610Z,99.99
2023-10-31T06:06:55.759Z,99.99
2023-10-31T06:07:55.954Z,99.99
2023-10-31T06:08:56.073Z,99.99
2023-10-31T06:09:56.248Z,99.99
2023-10-31T06:10:56.410Z,99.99
2023-10-31T06:11:56.593Z,99.99
2023-10-31T06:12:56.689Z,99.99
2023-10-31T06:13:56.853Z,99.99
2023-10-31T06:14:56.990Z,99.99
2023-10-31T06:16:00.716Z,99.99
2023-10-31T06:16:57.296Z,99.99
2023-10-31T06:17:57.451Z,99.99
2023-10-31T06:18:57.571Z,99.99
2023-10-31T06:19:57.778Z,99.99
2023-10-31T06:20:57.926Z,99.99
2023-10-31T06:21:58.100Z,99.99
2023-10-31T06:22:58.249Z,99.99
2023-10-31T06:23:58.397Z,99.99
2023-10-31T06:24:58.570Z,99.99
2023-10-31T06:25:58.722Z,99.99
2023-10-31T06:26:58.858Z,99.99
2023-10-31T06:27:59.002Z,99.99
2023-10-31T06:29:17.678Z,99.99
2023-10-31T06:30:11.603Z,99.99
2023-10-31T06:31:00.450Z,99.99
2023-10-31T06:31:59.621Z,99.99
2023-10-31T06:32:59.681Z,99.99
2023-10-31T06:33:59.812Z,99.99
2023-10-31T06:34:59.988Z,99.99
2023-10-31T06:36:00.148Z,99.99
2023-10-31T06:37:00.308Z,99.99
2023-10-31T06:38:00.465Z,99.99
2023-10-31T06:39:00.595Z,99.99
2023-10-31T06:40:00.735Z,99.99
2023-10-31T06:41:00.920Z,99.99
2023-10-31T06:42:01.081Z,99.99
2023-10-31T06:43:01.235Z,99.99
2023-10-31T06:44:01.425Z,99.99
2023-10-31T06:45:01.592Z,99.99
2023-10-31T06:46:01.898Z,99.99
2023-10-31T06:47:01.950Z,99.99
2023-10-31T06:48:02.145Z,99.99
2023-10-31T06:49:02.282Z,99.99
2023-10-31T06:50:02.423Z,99.99
2023-10-31T06:51:02.566Z,99.99
2023-10-31T06:52:02.740Z,99.99
2023-10-31T06:53:02.883Z,99.99
2023-10-31T06:54:03.040Z,99.99
2023-10-31T06:55:03.189Z,99.99
2023-10-31T06:56:03.420Z,99.99
2023-10-31T06:57:03.547Z,99.99
2023-10-31T06:58:03.680Z,99.99
2023-10-31T06:59:03.891Z,99.99
2023-10-31T07:00:03.966Z,99.99
2023-10-31T07:01:04.084Z,99.99
2023-10-31T07:02:04.269Z,99.99
2023-10-31T07:03:04.442Z,99.99
2023-10-31T07:04:04.735Z,99.99
2023-10-31T07:05:04.853Z,99.99
2023-10-31T07:06:04.916Z,99.99
2023-10-31T07:07:05.051Z,99.99
2023-10-31T07:08:05.243Z,99.99
2023-10-31T07:09:05.373Z,99.99
2023-10-31T07:10:05.567Z,99.99
2023-10-31T07:11:05.745Z,99.99
2023-10-31T07:12:05.881Z,99.99
2023-10-31T07:13:06.026Z,99.99
2023-10-31T07:14:06.251Z,99.99
2023-10-31T07:15:06.351Z,99.99
2023-10-31T07:16:06.583Z,99.99
2023-10-31T07:17:06.744Z,99.99
2023-10-31T07:18:06.878Z,99.99
2023-10-31T07:19:07.066Z,99.99
2023-10-31T07:20:07.340Z,99.99
2023-10-31T07:21:08.380Z,99.99
2023-10-31T07:22:07.521Z,99.99
2023-10-31T07:23:07.682Z,99.99
2023-10-31T07:24:07.815Z,99.99
2023-10-31T07:25:07.957Z,99.99
2023-10-31T07:26:08.150Z,99.99
2023-10-31T07:27:08.274Z,99.99
2023-10-31T07:28:08.435Z,99.99
2023-10-31T07:29:08.634Z,99.99
2023-10-31T07:30:08.764Z,99.99
2023-10-31T07:31:08.924Z,99.99
2023-10-31T07:32:10.622Z,99.99
2023-10-31T07:33:09.312Z,99.99
2023-10-31T07:34:09.403Z,99.99
2023-10-31T07:35:09.621Z,99.99
2023-10-31T07:36:09.680Z,99.99
2023-10-31T07:37:16.849Z,99.99
2023-10-31T07:38:12.629Z,99.99
2023-10-31T07:39:10.164Z,99.99
2023-10-31T07:40:12.872Z,99.99
2023-10-31T07:41:10.414Z,99.99
2023-10-31T07:42:10.436Z,99.99
2023-10-31T07:43:10.654Z,99.99
2023-10-31T07:44:10.764Z,99.99
2023-10-31T07:45:10.917Z,99.99
2023-10-31T07:46:11.142Z,99.99
2023-10-31T07:47:11.334Z,99.99
2023-10-31T07:48:11.456Z,99.99
2023-10-31T07:49:11.610Z,99.99
2023-10-31T07:50:12.768Z,99.99
2023-10-31T07:51:11.916Z,99.99
2023-10-31T07:52:12.052Z,99.99
2023-10-31T07:53:12.364Z,99.99
2023-10-31T07:54:12.362Z,99.99
2023-10-31T07:55:15.029Z,99.99
2023-10-31T07:56:12.719Z,99.99
2023-10-31T07:57:12.849Z,99.99
2023-10-31T07:58:13.013Z,99.99
2023-10-31T07:59:13.194Z,99.99
2023-10-31T08:00:13.391Z,99.99
2023-10-31T08:01:13.505Z,99.99
2023-10-31T08:02:13.699Z,99.99
2023-10-31T08:03:13.942Z,99.99
2023-10-31T08:04:13.962Z,99.99
2023-10-31T08:05:14.485Z,99.99
2023-10-31T08:06:14.330Z,99.99
2023-10-31T08:07:14.486Z,99.99
2023-10-31T08:08:14.979Z,99.65
2023-10-31T08:09:14.782Z,98.93
2023-10-31T08:10:14.940Z,98.93
2023-10-31T08:11:15.188Z,99.09
2023-10-31T08:12:15.275Z,97.87
2023-10-31T08:13:15.437Z,97.46
2023-10-31T08:14:15.635Z,97.05
2023-10-31T08:15:16.728Z,96.91
2023-10-31T08:16:16.893Z,96.39
2023-10-31T08:17:16.087Z,96.09
2023-10-31T08:18:16.498Z,94.97
2023-10-31T08:19:16.327Z,95.37
2023-10-31T08:20:16.515Z,94.35
2023-10-31T08:21:16.700Z,94.92
2023-10-31T08:22:16.733Z,94.76
2023-10-31T08:23:17.168Z,94.05
2023-10-31T08:24:17.058Z,94.46
2023-10-31T08:25:17.251Z,94.35
2023-10-31T08:26:17.443Z,93.85
2023-10-31T08:27:17.464Z,93.74
2023-10-31T08:28:17.620Z,93.70
2023-10-31T08:29:17.790Z,92.68
2023-10-31T08:30:17.952Z,93.25
2023-10-31T08:31:18.155Z,91.58
2023-10-31T08:32:18.320Z,90.11
2023-10-31T08:33:18.598Z,89.11
2023-10-31T08:34:18.567Z,87.08
2023-10-31T08:35:18.736Z,81.55
2023-10-31T08:36:18.848Z,79.79
2023-10-31T08:37:19.017Z,80.68
2023-10-31T08:38:26.863Z,80.79
2023-10-31T08:39:20.289Z,83.40
2023-10-31T08:40:19.451Z,84.26
2023-10-31T08:41:19.663Z,84.40
2023-10-31T08:42:19.765Z,84.50
2023-10-31T08:43:19.925Z,82.96
2023-10-31T08:44:20.129Z,80.21
2023-10-31T08:45:21.037Z,79.53
2023-10-31T08:46:20.486Z,77.73
2023-10-31T08:47:20.610Z,74.77
2023-10-31T08:48:20.735Z,75.13
2023-10-31T08:49:20.954Z,75.21
2023-10-31T08:50:21.126Z,77.00
2023-10-31T08:51:21.280Z,76.87
2023-10-31T08:52:21.449Z,76.09
2023-10-31T08:53:21.631Z,75.01
2023-10-31T08:54:21.765Z,73.49
2023-10-31T08:55:21.943Z,73.05
2023-10-31T08:56:22.133Z,70.86
2023-10-31T08:57:22.269Z,73.35
2023-10-31T08:58:22.408Z,74.98
2023-10-31T08:59:22.641Z,76.77
2023-10-31T09:00:22.741Z,77.38
2023-10-31T09:01:22.911Z,79.79
2023-10-31T09:02:23.104Z,81.96
2023-10-31T09:03:23.319Z,82.06
2023-10-31T09:04:23.350Z,82.10
2023-10-31T09:05:23.647Z,82.85
2023-10-31T09:06:23.702Z,83.60
2023-10-31T09:07:23.859Z,82.99
2023-10-31T09:08:24.047Z,83.40
2023-10-31T09:09:24.215Z,84.28
2023-10-31T09:10:24.364Z,83.87
2023-10-31T09:11:24.552Z,83.26
2023-10-31T09:12:24.680Z,84.48
2023-10-31T09:13:24.833Z,83.67
2023-10-31T09:14:24.994Z,83.46
2023-10-31T09:15:25.129Z,81.21
2023-10-31T09:16:25.305Z,80.50
2023-10-31T09:17:25.524Z,79.27
2023-10-31T09:18:25.640Z,76.53
2023-10-31T09:19:25.818Z,73.80
2023-10-31T09:20:25.970Z,75.69
2023-10-31T09:21:26.121Z,77.95
2023-10-31T09:22:26.259Z,75.04
2023-10-31T09:23:26.433Z,73.35
2023-10-31T09:24:26.581Z,71.70
2023-10-31T09:25:26.744Z,71.60
2023-10-31T09:26:26.988Z,70.83
2023-10-31T09:27:27.012Z,71.97
2023-10-31T09:28:27.173Z,73.83
2023-10-31T09:29:30.122Z,74.37
2023-10-31T09:30:27.540Z,74.81
2023-10-31T09:31:27.682Z,74.40
2023-10-31T09:32:27.917Z,76.50
2023-10-31T09:33:28.067Z,77.51
2023-10-31T09:34:28.166Z,76.20
2023-10-31T09:35:28.341Z,77.04
2023-10-31T09:36:28.448Z,77.25
2023-10-31T09:37:28.627Z,77.86
2023-10-31T09:38:28.776Z,78.40
2023-10-31T09:39:28.923Z,78.80
2023-10-31T09:40:29.077Z,78.64
2023-10-31T09:41:29.270Z,78.94
2023-10-31T09:42:29.421Z,79.65
2023-10-31T09:43:29.569Z,78.77
2023-10-31T09:44:29.793Z,77.01
2023-10-31T09:45:29.896Z,75.96
2023-10-31T09:46:30.046Z,74.19
2023-10-31T09:47:30.274Z,72.04
2023-10-31T09:48:30.382Z,72.81
2023-10-31T09:49:30.542Z,74.84
2023-10-31T09:50:30.745Z,76.43
2023-10-31T09:51:30.887Z,77.79
2023-10-31T09:52:31.058Z,79.21
2023-10-31T09:53:31.191Z,78.53
2023-10-31T09:54:31.377Z,78.67
2023-10-31T09:55:31.637Z,79.42
2023-10-31T09:56:31.736Z,80.94
2023-10-31T09:57:31.952Z,81.09
2023-10-31T09:58:31.996Z,81.39
2023-10-31T09:59:32.153Z,81.09
2023-10-31T10:00:32.330Z,83.15
2023-10-31T10:01:32.551Z,82.54
2023-10-31T10:02:32.877Z,82.65
2023-10-31T10:03:33.111Z,82.75
2023-10-31T10:04:33.038Z,83.15
2023-10-31T10:05:33.206Z,84.58
2023-10-31T10:06:33.386Z,83.87
2023-10-31T10:07:33.539Z,83.56
2023-10-31T10:08:33.686Z,83.36
2023-10-31T10:09:34.159Z,82.85
2023-10-31T10:10:33.972Z,83.32
2023-10-31T10:11:34.172Z,82.71
2023-10-31T10:12:34.353Z,82.81
2023-10-31T10:13:34.521Z,80.98
2023-10-31T10:14:34.691Z,80.47
2023-10-31T10:15:34.850Z,81.59
2023-10-31T10:16:35.019Z,81.90
2023-10-31T10:17:35.202Z,81.29
2023-10-31T10:18:35.311Z,80.68
2023-10-31T10:19:35.464Z,80.47
2023-10-31T10:20:35.599Z,80.47
2023-10-31T10:21:35.760Z,80.64
2023-10-31T10:22:35.910Z,80.74
2023-10-31T10:23:36.933Z,80.03
2023-10-31T10:24:36.192Z,78.61
2023-10-31T10:25:43.355Z,79.46
2023-10-31T10:26:37.489Z,79.97
2023-10-31T10:27:36.617Z,80.21
2023-10-31T10:28:36.777Z,80.72
2023-10-31T10:29:36.924Z,81.43
2023-10-31T10:30:37.073Z,81.23
2023-10-31T10:31:37.266Z,81.09
2023-10-31T10:32:37.446Z,80.88
2023-10-31T10:33:37.556Z,80.27
2023-10-31T10:34:37.751Z,79.86
2023-10-31T10:35:37.855Z,80.44
2023-10-31T10:36:38.075Z,79.52
2023-10-31T10:37:38.237Z,79.93
2023-10-31T10:38:38.398Z,78.67
2023-10-31T10:39:38.561Z,78.03
2023-10-31T10:40:38.749Z,78.23
2023-10-31T10:41:38.887Z,76.87
2023-10-31T10:42:39.068Z,77.12
2023-10-31T10:43:39.211Z,77.32
2023-10-31T10:44:39.425Z,76.91
2023-10-31T10:45:39.520Z,77.25
2023-10-31T10:46:39.720Z,78.41
2023-10-31T10:47:39.967Z,78.00
2023-10-31T10:48:40.050Z,78.67
2023-10-31T10:49:41.155Z,77.79
2023-10-31T10:50:40.305Z,75.49
2023-10-31T10:51:40.464Z,76.20
2023-10-31T10:52:40.623Z,75.05
2023-10-31T10:53:40.809Z,74.98
2023-10-31T10:54:40.945Z,73.25
2023-10-31T10:55:41.085Z,73.59
2023-10-31T10:56:41.218Z,73.43
2023-10-31T10:57:41.397Z,74.71
2023-10-31T10:58:41.578Z,76.64
2023-10-31T10:59:41.742Z,76.67
2023-10-31T11:00:41.885Z,76.87
2023-10-31T11:01:42.057Z,76.98
2023-10-31T11:02:42.277Z,76.87
2023-10-31T11:03:42.351Z,76.87
2023-10-31T11:04:42.475Z,77.79
2023-10-31T11:05:42.651Z,76.78
2023-10-31T11:06:42.832Z,76.98
2023-10-31T11:07:43.040Z,77.34
2023-10-31T11:08:43.194Z,77.55
2023-10-31T11:09:43.348Z,76.03
2023-10-31T11:10:43.487Z,75.82
2023-10-31T11:11:43.668Z,75.82
2023-10-31T11:12:43.842Z,75.82
2023-10-31T11:13:43.972Z,76.43
2023-10-31T11:14:44.116Z,76.33
2023-10-31T11:15:44.342Z,76.03
2023-10-31T11:16:44.578Z,76.17
2023-10-31T11:17:44.659Z,76.81
2023-10-31T11:18:44.663Z,77.22
2023-10-31T11:19:44.852Z,77.45
2023-10-31T11:20:45.015Z,77.97
2023-10-31T11:21:45.193Z,77.97
2023-10-31T11:22:45.393Z,77.86
2023-10-31T11:23:45.530Z,78.27
2023-10-31T11:24:45.690Z,79.18
2023-10-31T11:25:45.853Z,78.06
2023-10-31T11:26:45.998Z,77.66
2023-10-31T11:27:46.155Z,78.88
2023-10-31T11:28:46.358Z,78.17
2023-10-31T11:29:46.526Z,77.66
2023-10-31T11:30:46.782Z,77.56
2023-10-31T11:31:46.810Z,77.90
2023-10-31T11:32:46.999Z,78.41
2023-10-31T11:33:47.143Z,78.91
2023-10-31T11:34:47.294Z,79.63
2023-10-31T11:35:47.454Z,80.54
2023-10-31T11:36:47.607Z,78.81
2023-10-31T11:37:47.764Z,78.61
2023-10-31T11:38:47.912Z,79.86
2023-10-31T11:39:48.106Z,78.95
2023-10-31T11:40:48.247Z,79.05
2023-10-31T11:41:48.373Z,78.64
2023-10-31T11:42:48.715Z,79.56
2023-10-31T11:43:48.633Z,80.07
2023-10-31T11:44:48.801Z,79.77
2023-10-31T11:45:49.250Z,79.66
2023-10-31T11:46:49.069Z,80.68
2023-10-31T11:47:49.240Z,81.19
2023-10-31T11:48:49.418Z,81.90
2023-10-31T11:49:49.594Z,81.53
2023-10-31T11:50:49.763Z,81.12
2023-10-31T11:51:49.912Z,81.84
2023-10-31T11:52:50.069Z,82.61
2023-10-31T11:53:50.222Z,82.00
2023-10-31T11:54:50.446Z,80.98
2023-10-31T11:55:50.528Z,81.19
2023-10-31T11:56:50.754Z,82.45
2023-10-31T11:57:50.831Z,82.54
2023-10-31T11:58:50.985Z,83.67
2023-10-31T11:59:51.151Z,83.46
2023-10-31T12:00:51.393Z,83.15
2023-10-31T12:01:51.534Z,83.06
2023-10-31T12:02:51.828Z,83.15
2023-10-31T12:03:51.955Z,83.87
2023-10-31T12:04:52.038Z,83.67
2023-10-31T12:05:52.287Z,82.51
2023-10-31T12:06:52.398Z,81.86
2023-10-31T12:07:52.628Z,81.15
2023-10-31T12:08:52.690Z,81.96
2023-10-31T12:09:52.887Z,82.17
2023-10-31T12:10:53.032Z,81.29
2023-10-31T12:11:53.243Z,81.86
2023-10-31T12:12:53.394Z,82.61
2023-10-31T12:13:53.574Z,83.59
2023-10-31T12:14:53.758Z,82.40
2023-10-31T12:15:54.059Z,82.31
2023-10-31T12:16:54.161Z,82.65
2023-10-31T12:17:54.329Z,82.34
2023-10-31T12:18:54.511Z,82.95
2023-10-31T12:19:54.783Z,83.20
2023-10-31T12:20:54.796Z,83.60
2023-10-31T12:21:54.946Z,83.40
2023-10-31T12:22:55.168Z,83.50
2023-10-31T12:23:55.267Z,83.91
2023-10-31T12:24:55.428Z,83.40
2023-10-31T12:25:55.656Z,82.68
2023-10-31T12:26:55.809Z,82.59
2023-10-31T12:27:55.956Z,82.48
2023-10-31T12:28:56.214Z,80.35
2023-10-31T12:29:56.190Z,80.35
2023-10-31T12:30:56.352Z,81.37
2023-10-31T12:31:56.595Z,81.57
2023-10-31T12:32:56.665Z,80.85
2023-10-31T12:33:56.808Z,81.16
2023-10-31T12:34:56.988Z,79.94
2023-10-31T12:35:57.191Z,80.35
2023-10-31T12:36:57.388Z,79.74
2023-10-31T12:37:57.601Z,79.33
2023-10-31T12:38:57.751Z,78.82
2023-10-31T12:39:57.889Z,78.89
2023-10-31T12:40:58.089Z,78.48
2023-10-31T12:41:58.278Z,78.08
2023-10-31T12:42:58.529Z,78.28
2023-10-31T12:43:58.602Z,78.89
2023-10-31T12:44:58.730Z,79.39
2023-10-31T12:45:58.917Z,78.89
2023-10-31T12:46:59.103Z,79.09
2023-10-31T12:47:59.151Z,78.92
2023-10-31T12:48:59.317Z,78.92
2023-10-31T12:49:59.499Z,79.43
2023-10-31T12:50:59.610Z,80.45
2023-10-31T12:51:59.761Z,80.45
2023-10-31T12:52:59.941Z,79.74
2023-10-31T12:54:00.082Z,79.74
2023-10-31T12:55:01.207Z,80.85